Terminal Aerodrome Forecast
Issued by NWS

Home | Current Version | Previous Version | Text Only | Print | Product List | Glossary On
Versions: 1 2 3 4 5 6 7 8 9 10 11 12 13
000
FTUS45 KPSR 300807 AAA
TAFIWA
TAF AMD
KIWA 300807Z 3008/3106 13007KT P6SM OVC250
      TEMPO 3015/3018 14008G19KT
     FM301900 27007KT P6SM BKN250
      AMD LTD TO CLD VIS AND WIND TIL 301300=

USA.gov is the U.S. government's official web portal to all federal, state and local government web resources and services.